Airfield :
LOGIN :

Register | Disclaimer

   EN    FR    IT 

 










Legend :    VFR   Marginal VFR   IFR   Intensive IFR   Very Intensive IFR
Visi :
Ceiling :
>= 8 km
>= 3000ft
5 to 8 km
1000 to 3000 ft
1500m to 5 km
500 to 1000 ft
800 to 1500m
200 to 500 ft
< 800m
< 200 ft
Symbols :   Thunderstorms  Fog  Heavy snow  Heavy precipitations  Wind > 20 kt
SIGMETs :     Misc.  Thunderstorms  Icing  Turbulence  Mountain Waves  Volcanic Ashes






- Airport Elevation : 13 ft
- IATA code : LYX


EGMD - Lydd

CURRENT METAR :
  • 250550Z AUTO 33011KT 9999 NCD 01/M00 Q1004

EXPIRED METARs :
  • 250520Z AUTO 33013KT 9999 NCD 01/M00 Q1004
  • 250450Z AUTO 34014KT 9999 NCD 01/00 Q1003
  • 250420Z AUTO 34015KT 9999 FEW038/// 01/00 Q1002
  • 250350Z AUTO 33013KT 9999 NCD 01/00 Q1002
  • 250320Z AUTO 34013KT 9999 FEW017/// 01/00 Q1001

TAF TAF EGMD
Valid from the 25 at 06:00 until the 25 at 15:00 UTC


250500Z 2506/2515 35010KT CAVOK
ATIS : +44 1797 322 422



MET'MAP, your aeronautical weather chart ! - Copyright ORBIFLY December 2007 - Disclaimer

ORBIFLY MET'MAP TEAM :

Programming & Development : Alexandra Zaïnal
Concept & original design : Baudouin d'Aumeries
Assistance for programming : Marc-Olivier Méhu
Technical & hardware support : Manuel Goepfert

Contact : metmap@orbifly.com




SOURCES & CREDITS :

   NOAA